sensor_id;sensor_type;location;lat;lon;timestamp;pressure;altitude;pressure_sealevel;temperature;humidity
3102;BME280;1561;42.666;23.392;2024-02-23T00:01:39;94939.81;;;6.72;100.00
3102;BME280;1561;42.666;23.392;2024-02-23T00:04:31;94858.38;;;6.28;100.00
3102;BME280;1561;42.666;23.392;2024-02-23T00:07:52;94954.59;;;6.54;100.00
3102;BME280;1561;42.666;23.392;2024-02-23T00:11:01;94890.81;;;6.12;100.00
3102;BME280;1561;42.666;23.392;2024-02-23T00:13:44;94941.09;;;6.54;100.00
3102;BME280;1561;42.666;23.392;2024-02-23T00:16:43;94933.38;;;6.55;100.00
3102;BME280;1561;42.666;23.392;2024-02-23T00:19:33;94944.06;;;6.48;100.00
3102;BME280;1561;42.666;23.392;2024-02-23T00:22:49;94884.94;;;5.99;100.00
3102;BME280;1561;42.666;23.392;2024-02-23T00:25:23;94930.38;;;6.38;100.00
3102;BME280;1561;42.666;23.392;2024-02-23T00:28:17;94914.50;;;6.23;100.00
3102;BME280;1561;42.666;23.392;2024-02-23T00:30:47;94940.03;;;6.33;100.00
3102;BME280;1561;42.666;23.392;2024-02-23T00:33:27;94941.44;;;6.37;100.00
3102;BME280;1561;42.666;23.392;2024-02-23T00:36:01;94918.47;;;6.27;100.00
3102;BME280;1561;42.666;23.392;2024-02-23T00:38:28;94911.63;;;6.28;100.00
3102;BME280;1561;42.666;23.392;2024-02-23T00:40:56;94897.88;;;6.19;100.00
3102;BME280;1561;42.666;23.392;2024-02-23T00:43:38;94928.81;;;6.24;100.00
3102;BME280;1561;42.666;23.392;2024-02-23T00:46:09;94942.00;;;6.17;100.00
3102;BME280;1561;42.666;23.392;2024-02-23T00:48:43;94898.41;;;5.99;100.00
3102;BME280;1561;42.666;23.392;2024-02-23T00:51:14;94918.03;;;6.33;100.00
3102;BME280;1561;42.666;23.392;2024-02-23T00:53:45;94910.09;;;6.38;100.00
3102;BME280;1561;42.666;23.392;2024-02-23T00:56:26;94902.91;;;6.32;100.00
3102;BME280;1561;42.666;23.392;2024-02-23T00:58:59;94905.34;;;6.33;100.00
3102;BME280;1561;42.666;23.392;2024-02-23T01:01:34;94900.75;;;6.38;100.00
3102;BME280;1561;42.666;23.392;2024-02-23T01:04:07;94895.16;;;6.46;100.00
3102;BME280;1561;42.666;23.392;2024-02-23T01:06:41;94914.97;;;6.64;100.00
3102;BME280;1561;42.666;23.392;2024-02-23T01:09:09;94872.28;;;6.35;100.00
3102;BME280;1561;42.666;23.392;2024-02-23T01:11:47;94916.38;;;6.45;100.00
3102;BME280;1561;42.666;23.392;2024-02-23T01:14:33;94911.03;;;6.60;100.00
3102;BME280;1561;42.666;23.392;2024-02-23T01:17:05;94911.28;;;6.45;100.00
3102;BME280;1561;42.666;23.392;2024-02-23T01:19:44;94866.31;;;6.23;100.00
3102;BME280;1561;42.666;23.392;2024-02-23T01:22:17;94905.53;;;6.30;100.00
3102;BME280;1561;42.666;23.392;2024-02-23T01:24:46;94891.84;;;6.33;100.00
3102;BME280;1561;42.666;23.392;2024-02-23T01:27:16;94827.56;;;6.21;100.00
3102;BME280;1561;42.666;23.392;2024-02-23T01:29:44;94903.09;;;6.65;100.00
3102;BME280;1561;42.666;23.392;2024-02-23T01:32:12;94908.44;;;6.49;100.00
3102;BME280;1561;42.666;23.392;2024-02-23T01:34:47;94865.66;;;6.09;100.00
3102;BME280;1561;42.666;23.392;2024-02-23T01:37:19;94886.38;;;6.26;100.00
3102;BME280;1561;42.666;23.392;2024-02-23T01:40:01;94884.84;;;6.60;100.00
3102;BME280;1561;42.666;23.392;2024-02-23T01:42:37;94877.72;;;6.41;100.00
3102;BME280;1561;42.666;23.392;2024-02-23T01:45:13;94885.28;;;6.54;100.00
3102;BME280;1561;42.666;23.392;2024-02-23T01:47:49;94868.84;;;6.47;100.00
3102;BME280;1561;42.666;23.392;2024-02-23T01:50:20;94882.84;;;6.52;100.00
3102;BME280;1561;42.666;23.392;2024-02-23T01:52:49;94815.16;;;6.29;100.00
3102;BME280;1561;42.666;23.392;2024-02-23T01:55:39;94872.59;;;6.54;100.00
3102;BME280;1561;42.666;23.392;2024-02-23T01:58:22;94868.25;;;6.43;100.00
3102;BME280;1561;42.666;23.392;2024-02-23T02:00:50;94868.06;;;6.70;100.00
3102;BME280;1561;42.666;23.392;2024-02-23T02:03:23;94748.69;;;5.77;100.00
3102;BME280;1561;42.666;23.392;2024-02-23T02:05:55;94869.38;;;6.52;100.00
3102;BME280;1561;42.666;23.392;2024-02-23T02:08:26;94805.75;;;6.19;100.00
3102;BME280;1561;42.666;23.392;2024-02-23T02:10:59;94678.75;;;5.28;100.00
3102;BME280;1561;42.666;23.392;2024-02-23T02:13:28;94862.91;;;6.35;100.00
3102;BME280;1561;42.666;23.392;2024-02-23T02:16:00;94850.50;;;6.43;100.00
3102;BME280;1561;42.666;23.392;2024-02-23T02:18:31;94844.19;;;6.49;100.00
3102;BME280;1561;42.666;23.392;2024-02-23T02:21:14;94840.94;;;6.47;100.00
3102;BME280;1561;42.666;23.392;2024-02-23T02:23:47;94863.41;;;6.64;100.00
3102;BME280;1561;42.666;23.392;2024-02-23T02:26:21;94862.78;;;6.49;100.00
3102;BME280;1561;42.666;23.392;2024-02-23T02:29:02;94850.75;;;6.40;100.00
3102;BME280;1561;42.666;23.392;2024-02-23T02:31:39;94776.06;;;5.85;100.00
3102;BME280;1561;42.666;23.392;2024-02-23T02:34:08;94853.59;;;6.36;100.00
3102;BME280;1561;42.666;23.392;2024-02-23T02:36:43;94855.25;;;6.24;100.00
3102;BME280;1561;42.666;23.392;2024-02-23T02:39:23;94856.59;;;6.17;100.00
3102;BME280;1561;42.666;23.392;2024-02-23T02:41:51;94861.75;;;6.28;100.00
3102;BME280;1561;42.666;23.392;2024-02-23T02:44:19;94847.81;;;6.10;100.00
3102;BME280;1561;42.666;23.392;2024-02-23T02:46:57;94841.22;;;6.08;100.00
3102;BME280;1561;42.666;23.392;2024-02-23T02:49:41;94866.44;;;6.09;100.00
3102;BME280;1561;42.666;23.392;2024-02-23T02:52:27;94864.94;;;6.07;100.00
3102;BME280;1561;42.666;23.392;2024-02-23T02:55:01;94856.06;;;5.89;100.00
3102;BME280;1561;42.666;23.392;2024-02-23T02:57:33;94865.41;;;5.88;100.00
3102;BME280;1561;42.666;23.392;2024-02-23T03:00:05;94864.78;;;5.72;100.00
3102;BME280;1561;42.666;23.392;2024-02-23T03:02:35;94857.06;;;5.86;100.00
3102;BME280;1561;42.666;23.392;2024-02-23T03:05:08;94828.34;;;5.98;100.00
3102;BME280;1561;42.666;23.392;2024-02-23T03:07:56;94864.25;;;6.05;100.00
3102;BME280;1561;42.666;23.392;2024-02-23T03:10:35;94759.19;;;5.60;100.00
3102;BME280;1561;42.666;23.392;2024-02-23T03:13:10;94838.81;;;6.30;100.00
3102;BME280;1561;42.666;23.392;2024-02-23T03:15:46;94861.50;;;6.31;100.00
3102;BME280;1561;42.666;23.392;2024-02-23T03:18:28;94845.81;;;6.03;100.00
3102;BME280;1561;42.666;23.392;2024-02-23T03:20:57;94869.50;;;6.02;100.00
3102;BME280;1561;42.666;23.392;2024-02-23T03:23:34;94836.59;;;5.89;100.00
3102;BME280;1561;42.666;23.392;2024-02-23T03:26:06;94790.13;;;5.40;100.00
3102;BME280;1561;42.666;23.392;2024-02-23T03:28:36;94874.50;;;5.91;100.00
3102;BME280;1561;42.666;23.392;2024-02-23T03:31:06;94863.38;;;5.81;100.00
3102;BME280;1561;42.666;23.392;2024-02-23T03:33:38;94830.31;;;5.70;100.00
3102;BME280;1561;42.666;23.392;2024-02-23T03:36:09;94779.69;;;5.45;100.00
3102;BME280;1561;42.666;23.392;2024-02-23T03:38:45;94867.22;;;5.86;100.00
3102;BME280;1561;42.666;23.392;2024-02-23T03:41:14;94781.22;;;5.35;100.00
3102;BME280;1561;42.666;23.392;2024-02-23T03:43:47;94869.75;;;5.99;100.00
3102;BME280;1561;42.666;23.392;2024-02-23T03:46:17;94864.78;;;5.97;100.00
3102;BME280;1561;42.666;23.392;2024-02-23T03:48:53;94856.06;;;5.89;100.00
3102;BME280;1561;42.666;23.392;2024-02-23T03:51:24;94850.63;;;6.06;100.00
3102;BME280;1561;42.666;23.392;2024-02-23T03:54:01;94869.91;;;6.08;100.00
3102;BME280;1561;42.666;23.392;2024-02-23T03:56:40;94877.94;;;6.02;100.00
3102;BME280;1561;42.666;23.392;2024-02-23T03:59:15;94871.66;;;6.08;100.00
3102;BME280;1561;42.666;23.392;2024-02-23T04:01:45;94766.84;;;5.35;100.00
3102;BME280;1561;42.666;23.392;2024-02-23T04:04:25;94873.25;;;6.09;100.00
3102;BME280;1561;42.666;23.392;2024-02-23T04:06:55;94847.16;;;5.83;100.00
3102;BME280;1561;42.666;23.392;2024-02-23T04:09:26;94839.00;;;5.78;100.00
3102;BME280;1561;42.666;23.392;2024-02-23T04:11:57;94863.84;;;5.98;100.00
3102;BME280;1561;42.666;23.392;2024-02-23T04:14:39;94815.25;;;5.56;100.00
3102;BME280;1561;42.666;23.392;2024-02-23T04:17:17;94878.72;;;6.15;100.00
3102;BME280;1561;42.666;23.392;2024-02-23T04:19:47;94871.50;;;6.09;100.00
3102;BME280;1561;42.666;23.392;2024-02-23T04:22:19;94883.41;;;6.09;100.00
3102;BME280;1561;42.666;23.392;2024-02-23T04:25:08;94883.09;;;6.01;100.00
3102;BME280;1561;42.666;23.392;2024-02-23T04:27:35;94878.22;;;6.10;100.00
3102;BME280;1561;42.666;23.392;2024-02-23T04:30:05;94868.44;;;5.93;100.00
3102;BME280;1561;42.666;23.392;2024-02-23T04:32:47;94854.97;;;5.80;100.00
3102;BME280;1561;42.666;23.392;2024-02-23T04:35:17;94840.25;;;5.60;100.00
3102;BME280;1561;42.666;23.392;2024-02-23T04:37:58;94875.53;;;5.88;100.00
3102;BME280;1561;42.666;23.392;2024-02-23T04:40:36;94874.28;;;6.06;100.00
3102;BME280;1561;42.666;23.392;2024-02-23T04:43:06;94884.84;;;5.88;100.00
3102;BME280;1561;42.666;23.392;2024-02-23T04:45:51;94885.53;;;5.77;100.00
3102;BME280;1561;42.666;23.392;2024-02-23T04:48:29;94877.44;;;5.72;100.00
3102;BME280;1561;42.666;23.392;2024-02-23T04:51:16;94887.28;;;5.77;100.00
3102;BME280;1561;42.666;23.392;2024-02-23T04:54:01;94881.00;;;5.70;100.00
3102;BME280;1561;42.666;23.392;2024-02-23T04:56:49;94902.47;;;5.64;100.00
3102;BME280;1561;42.666;23.392;2024-02-23T04:59:37;94880.91;;;5.59;100.00
3102;BME280;1561;42.666;23.392;2024-02-23T05:02:33;94851.28;;;5.72;100.00
3102;BME280;1561;42.666;23.392;2024-02-23T05:05:07;94887.72;;;5.83;100.00
3102;BME280;1561;42.666;23.392;2024-02-23T05:07:53;94899.38;;;5.86;100.00
3102;BME280;1561;42.666;23.392;2024-02-23T05:10:39;94903.59;;;5.60;100.00
3102;BME280;1561;42.666;23.392;2024-02-23T05:13:24;94891.34;;;5.42;100.00
3102;BME280;1561;42.666;23.392;2024-02-23T05:16:01;94887.56;;;5.72;100.00
3102;BME280;1561;42.666;23.392;2024-02-23T05:19:04;94898.25;;;5.52;100.00
3102;BME280;1561;42.666;23.392;2024-02-23T05:21:35;94899.31;;;5.73;100.00
3102;BME280;1561;42.666;23.392;2024-02-23T05:24:07;94896.09;;;5.96;100.00
3102;BME280;1561;42.666;23.392;2024-02-23T05:26:39;94915.91;;;6.63;100.00
3102;BME280;1561;42.666;23.392;2024-02-23T05:29:13;94917.19;;;6.92;100.00
3102;BME280;1561;42.666;23.392;2024-02-23T05:31:48;94924.41;;;7.09;100.00
3102;BME280;1561;42.666;23.392;2024-02-23T05:34:24;94919.06;;;7.36;100.00
3102;BME280;1561;42.666;23.392;2024-02-23T05:37:15;94883.31;;;8.05;100.00
3102;BME280;1561;42.666;23.392;2024-02-23T05:39:51;94897.47;;;8.62;100.00
3102;BME280;1561;42.666;23.392;2024-02-23T05:42:44;94868.13;;;8.47;100.00
3102;BME280;1561;42.666;23.392;2024-02-23T05:48:32;94929.34;;;8.88;100.00
3102;BME280;1561;42.666;23.392;2024-02-23T05:51:07;94937.84;;;9.09;100.00
3102;BME280;1561;42.666;23.392;2024-02-23T05:54:10;94854.22;;;9.15;100.00
3102;BME280;1561;42.666;23.392;2024-02-23T05:57:43;94929.09;;;10.75;100.00
3102;BME280;1561;42.666;23.392;2024-02-23T06:00:14;94927.91;;;11.17;100.00
3102;BME280;1561;42.666;23.392;2024-02-23T06:03:00;94880.41;;;11.62;100.00
3102;BME280;1561;42.666;23.392;2024-02-23T06:05:43;94933.97;;;11.54;100.00
3102;BME280;1561;42.666;23.392;2024-02-23T06:08:18;94904.78;;;12.66;100.00
3102;BME280;1561;42.666;23.392;2024-02-23T06:11:01;94933.06;;;13.53;99.17
3102;BME280;1561;42.666;23.392;2024-02-23T06:13:32;94940.66;;;12.66;100.00
3102;BME280;1561;42.666;23.392;2024-02-23T06:16:22;94923.06;;;11.52;100.00
3102;BME280;1561;42.666;23.392;2024-02-23T06:19:00;94876.59;;;11.75;100.00
3102;BME280;1561;42.666;23.392;2024-02-23T06:22:17;94951.66;;;13.03;100.00
3102;BME280;1561;42.666;23.392;2024-02-23T06:25:07;94941.41;;;13.03;96.85
3102;BME280;1561;42.666;23.392;2024-02-23T06:28:12;94957.09;;;11.90;100.00
3102;BME280;1561;42.666;23.392;2024-02-23T06:30:45;94949.28;;;13.19;100.00
3102;BME280;1561;42.666;23.392;2024-02-23T06:33:47;94913.34;;;15.21;80.89
3102;BME280;1561;42.666;23.392;2024-02-23T06:36:22;94940.47;;;13.21;85.74
3102;BME280;1561;42.666;23.392;2024-02-23T06:42:02;94949.38;;;14.13;80.29
3102;BME280;1561;42.666;23.392;2024-02-23T06:44:52;94931.09;;;14.41;79.59
3102;BME280;1561;42.666;23.392;2024-02-23T06:47:26;94929.53;;;14.90;77.50
3102;BME280;1561;42.666;23.392;2024-02-23T06:50:01;94933.94;;;15.29;73.63
3102;BME280;1561;42.666;23.392;2024-02-23T06:55:25;94942.06;;;15.66;71.58
3102;BME280;1561;42.666;23.392;2024-02-23T06:58:03;94951.53;;;15.58;67.17
3102;BME280;1561;42.666;23.392;2024-02-23T07:00:35;94946.69;;;16.27;68.23
3102;BME280;1561;42.666;23.392;2024-02-23T07:03:06;94935.91;;;16.23;63.89
3102;BME280;1561;42.666;23.392;2024-02-23T07:05:36;94951.63;;;14.67;70.70
3102;BME280;1561;42.666;23.392;2024-02-23T07:08:05;94952.78;;;15.30;71.45
3102;BME280;1561;42.666;23.392;2024-02-23T07:10:38;94945.38;;;13.67;77.09
3102;BME280;1561;42.666;23.392;2024-02-23T07:13:09;94950.59;;;14.52;78.90
3102;BME280;1561;42.666;23.392;2024-02-23T07:15:42;94958.09;;;14.79;72.36
3102;BME280;1561;42.666;23.392;2024-02-23T07:18:12;94965.66;;;14.47;80.48
3102;BME280;1561;42.666;23.392;2024-02-23T07:20:50;94938.69;;;16.69;66.50
3102;BME280;1561;42.666;23.392;2024-02-23T07:23:18;94953.84;;;15.11;72.37
3102;BME280;1561;42.666;23.392;2024-02-23T07:25:52;94941.66;;;15.29;71.09
3102;BME280;1561;42.666;23.392;2024-02-23T07:28:27;94937.63;;;15.19;74.04
3102;BME280;1561;42.666;23.392;2024-02-23T07:30:58;94936.53;;;16.25;68.01
3102;BME280;1561;42.666;23.392;2024-02-23T07:33:27;94932.63;;;16.92;67.72
3102;BME280;1561;42.666;23.392;2024-02-23T07:35:56;94927.97;;;16.41;66.37
3102;BME280;1561;42.666;23.392;2024-02-23T07:38:25;94918.06;;;15.82;73.32
3102;BME280;1561;42.666;23.392;2024-02-23T07:40:53;94925.09;;;16.20;69.16
3102;BME280;1561;42.666;23.392;2024-02-23T07:43:25;94932.03;;;17.13;69.65
3102;BME280;1561;42.666;23.392;2024-02-23T07:45:55;94883.81;;;15.49;69.63
3102;BME280;1561;42.666;23.392;2024-02-23T07:48:24;94835.06;;;15.40;72.98
3102;BME280;1561;42.666;23.392;2024-02-23T07:50:51;94941.25;;;17.07;67.77
3102;BME280;1561;42.666;23.392;2024-02-23T07:53:26;94928.97;;;17.85;66.56
3102;BME280;1561;42.666;23.392;2024-02-23T07:55:58;94936.00;;;17.23;69.11
3102;BME280;1561;42.666;23.392;2024-02-23T07:58:37;94925.47;;;17.55;67.29
3102;BME280;1561;42.666;23.392;2024-02-23T08:01:05;94927.44;;;17.23;65.90
3102;BME280;1561;42.666;23.392;2024-02-23T08:03:43;94935.75;;;16.01;74.89
3102;BME280;1561;42.666;23.392;2024-02-23T08:06:12;94740.00;;;14.74;72.18
3102;BME280;1561;42.666;23.392;2024-02-23T08:08:40;94916.25;;;17.30;66.61
3102;BME280;1561;42.666;23.392;2024-02-23T08:11:10;94925.16;;;17.58;65.04
3102;BME280;1561;42.666;23.392;2024-02-23T08:13:43;94925.19;;;18.10;62.57
3102;BME280;1561;42.666;23.392;2024-02-23T08:16:15;94930.38;;;17.87;64.64
3102;BME280;1561;42.666;23.392;2024-02-23T08:18:49;94920.69;;;18.41;60.17
3102;BME280;1561;42.666;23.392;2024-02-23T08:21:24;94910.72;;;18.15;63.57
3102;BME280;1561;42.666;23.392;2024-02-23T08:23:52;94910.13;;;18.28;64.72
3102;BME280;1561;42.666;23.392;2024-02-23T08:26:24;94916.22;;;18.35;62.13
3102;BME280;1561;42.666;23.392;2024-02-23T08:28:57;94860.78;;;17.86;64.26
3102;BME280;1561;42.666;23.392;2024-02-23T08:31:27;94927.50;;;17.45;62.40
3102;BME280;1561;42.666;23.392;2024-02-23T08:33:55;94850.06;;;17.74;62.49
3102;BME280;1561;42.666;23.392;2024-02-23T08:36:25;94920.97;;;18.60;63.26
3102;BME280;1561;42.666;23.392;2024-02-23T08:38:53;94920.44;;;19.92;58.31
3102;BME280;1561;42.666;23.392;2024-02-23T08:41:22;94911.28;;;18.25;60.23
3102;BME280;1561;42.666;23.392;2024-02-23T08:43:49;94903.66;;;17.95;60.12
3102;BME280;1561;42.666;23.392;2024-02-23T08:46:18;94919.00;;;20.11;56.43
3102;BME280;1561;42.666;23.392;2024-02-23T08:48:47;94909.94;;;21.75;50.40
3102;BME280;1561;42.666;23.392;2024-02-23T08:51:15;94916.34;;;21.06;50.33
3102;BME280;1561;42.666;23.392;2024-02-23T08:53:48;94920.34;;;20.34;52.25
3102;BME280;1561;42.666;23.392;2024-02-23T08:56:38;94919.06;;;18.98;55.63
3102;BME280;1561;42.666;23.392;2024-02-23T08:59:19;94924.63;;;16.08;66.27
3102;BME280;1561;42.666;23.392;2024-02-23T09:01:50;94938.47;;;15.27;76.62
3102;BME280;1561;42.666;23.392;2024-02-23T09:04:17;94932.91;;;15.64;78.07
3102;BME280;1561;42.666;23.392;2024-02-23T09:06:45;94929.09;;;15.10;86.31
3102;BME280;1561;42.666;23.392;2024-02-23T09:09:14;94923.69;;;15.37;80.27
3102;BME280;1561;42.666;23.392;2024-02-23T09:11:44;94916.25;;;17.08;69.70
3102;BME280;1561;42.666;23.392;2024-02-23T09:14:11;94913.03;;;17.96;62.68
3102;BME280;1561;42.666;23.392;2024-02-23T09:16:39;94916.84;;;19.51;56.22
3102;BME280;1561;42.666;23.392;2024-02-23T09:19:08;94911.34;;;20.64;51.36
3102;BME280;1561;42.666;23.392;2024-02-23T09:21:36;94914.47;;;18.64;51.71
3102;BME280;1561;42.666;23.392;2024-02-23T09:24:03;94923.63;;;17.86;55.71
3102;BME280;1561;42.666;23.392;2024-02-23T09:26:31;94914.63;;;18.48;56.64
3102;BME280;1561;42.666;23.392;2024-02-23T09:28:58;94913.78;;;19.41;53.01
3102;BME280;1561;42.666;23.392;2024-02-23T09:31:26;94917.44;;;20.84;49.56
3102;BME280;1561;42.666;23.392;2024-02-23T09:33:55;94912.66;;;20.88;48.15
3102;BME280;1561;42.666;23.392;2024-02-23T09:36:24;94910.75;;;20.07;49.34
3102;BME280;1561;42.666;23.392;2024-02-23T09:38:54;94906.38;;;20.35;47.64
3102;BME280;1561;42.666;23.392;2024-02-23T09:41:22;94919.41;;;18.95;50.97
3102;BME280;1561;42.666;23.392;2024-02-23T09:43:50;94905.75;;;21.01;46.84
3102;BME280;1561;42.666;23.392;2024-02-23T09:46:21;94908.88;;;21.50;45.21
3102;BME280;1561;42.666;23.392;2024-02-23T09:48:50;94909.31;;;18.85;49.96
3102;BME280;1561;42.666;23.392;2024-02-23T09:51:17;94900.31;;;19.73;48.75
3102;BME280;1561;42.666;23.392;2024-02-23T09:53:49;94899.09;;;20.45;47.80
3102;BME280;1561;42.666;23.392;2024-02-23T09:56:21;94891.97;;;20.60;46.24
3102;BME280;1561;42.666;23.392;2024-02-23T09:58:55;94892.09;;;19.91;45.98
3102;BME280;1561;42.666;23.392;2024-02-23T10:01:28;94887.66;;;18.86;48.59
3102;BME280;1561;42.666;23.392;2024-02-23T10:03:57;94884.75;;;18.46;50.30
3102;BME280;1561;42.666;23.392;2024-02-23T10:06:26;94883.22;;;20.34;46.84
3102;BME280;1561;42.666;23.392;2024-02-23T10:08:55;94890.75;;;20.97;44.28
3102;BME280;1561;42.666;23.392;2024-02-23T10:11:42;94892.03;;;19.84;45.47
3102;BME280;1561;42.666;23.392;2024-02-23T10:14:11;94876.84;;;20.77;44.73
3102;BME280;1561;42.666;23.392;2024-02-23T10:16:45;94879.38;;;21.04;43.28
3102;BME280;1561;42.666;23.392;2024-02-23T10:19:14;94884.00;;;20.28;46.37
3102;BME280;1561;42.666;23.392;2024-02-23T10:21:42;94884.53;;;23.44;40.66
3102;BME280;1561;42.666;23.392;2024-02-23T10:24:13;94855.22;;;24.46;38.93
3102;BME280;1561;42.666;23.392;2024-02-23T10:26:44;94864.34;;;25.68;36.52
3102;BME280;1561;42.666;23.392;2024-02-23T10:29:23;94843.00;;;23.04;38.60
3102;BME280;1561;42.666;23.392;2024-02-23T10:31:59;94773.09;;;24.06;37.07
3102;BME280;1561;42.666;23.392;2024-02-23T10:34:29;94847.47;;;24.76;37.16
3102;BME280;1561;42.666;23.392;2024-02-23T10:37:02;94861.47;;;23.72;38.66
3102;BME280;1561;42.666;23.392;2024-02-23T10:39:52;94854.47;;;24.93;36.26
3102;BME280;1561;42.666;23.392;2024-02-23T10:42:25;94856.91;;;22.09;38.34
3102;BME280;1561;42.666;23.392;2024-02-23T10:45:01;94768.47;;;23.03;37.61
3102;BME280;1561;42.666;23.392;2024-02-23T10:47:32;94827.84;;;23.64;37.76
3102;BME280;1561;42.666;23.392;2024-02-23T10:50:02;94835.81;;;23.69;37.66
3102;BME280;1561;42.666;23.392;2024-02-23T10:52:35;94834.63;;;22.58;38.78
3102;BME280;1561;42.666;23.392;2024-02-23T10:55:09;94841.91;;;21.52;40.49
3102;BME280;1561;42.666;23.392;2024-02-23T10:57:47;94837.06;;;22.27;39.11
3102;BME280;1561;42.666;23.392;2024-02-23T11:00:19;94820.94;;;23.69;37.87
3102;BME280;1561;42.666;23.392;2024-02-23T11:02:52;94815.75;;;23.69;37.41
3102;BME280;1561;42.666;23.392;2024-02-23T11:05:23;94786.91;;;23.02;37.72
3102;BME280;1561;42.666;23.392;2024-02-23T11:07:50;94802.31;;;21.44;39.61
3102;BME280;1561;42.666;23.392;2024-02-23T11:10:22;94789.09;;;23.05;38.16
3102;BME280;1561;42.666;23.392;2024-02-23T11:12:57;94778.75;;;23.30;36.96
3102;BME280;1561;42.666;23.392;2024-02-23T11:15:28;94805.34;;;23.00;37.47
3102;BME280;1561;42.666;23.392;2024-02-23T11:17:57;94764.66;;;22.11;37.51
3102;BME280;1561;42.666;23.392;2024-02-23T11:20:36;94796.50;;;21.68;39.02
3102;BME280;1561;42.666;23.392;2024-02-23T11:23:14;94793.94;;;21.81;39.05
3102;BME280;1561;42.666;23.392;2024-02-23T11:25:58;94791.22;;;20.90;40.00
3102;BME280;1561;42.666;23.392;2024-02-23T11:28:26;94783.94;;;21.78;39.73
3102;BME280;1561;42.666;23.392;2024-02-23T11:30:54;94790.25;;;22.21;38.27
3102;BME280;1561;42.666;23.392;2024-02-23T11:33:29;94782.50;;;21.69;39.55
3102;BME280;1561;42.666;23.392;2024-02-23T11:36:08;94784.75;;;20.66;40.99
3102;BME280;1561;42.666;23.392;2024-02-23T11:38:36;94773.00;;;20.77;40.67
3102;BME280;1561;42.666;23.392;2024-02-23T11:41:07;94694.75;;;21.58;39.14
3102;BME280;1561;42.666;23.392;2024-02-23T11:43:34;94781.09;;;21.27;40.29
3102;BME280;1561;42.666;23.392;2024-02-23T11:46:02;94783.47;;;22.13;38.71
3102;BME280;1561;42.666;23.392;2024-02-23T11:48:29;94679.25;;;20.33;39.89
3102;BME280;1561;42.666;23.392;2024-02-23T11:50:56;94777.53;;;20.08;40.95
3102;BME280;1561;42.666;23.392;2024-02-23T11:53:26;94704.00;;;19.88;40.74
3102;BME280;1561;42.666;23.392;2024-02-23T11:55:53;94773.31;;;21.14;40.01
3102;BME280;1561;42.666;23.392;2024-02-23T11:58:23;94767.53;;;21.25;39.40
3102;BME280;1561;42.666;23.392;2024-02-23T12:00:54;94769.78;;;19.87;40.47
3102;BME280;1561;42.666;23.392;2024-02-23T12:03:22;94762.88;;;19.67;40.87
3102;BME280;1561;42.666;23.392;2024-02-23T12:05:51;94768.56;;;20.11;40.30
3102;BME280;1561;42.666;23.392;2024-02-23T12:08:20;94759.13;;;19.69;40.98
3102;BME280;1561;42.666;23.392;2024-02-23T12:10:55;94755.59;;;20.58;40.21
3102;BME280;1561;42.666;23.392;2024-02-23T12:13:26;94752.50;;;20.95;39.52
3102;BME280;1561;42.666;23.392;2024-02-23T12:15:54;94744.88;;;20.80;40.01
3102;BME280;1561;42.666;23.392;2024-02-23T12:18:23;94746.94;;;21.50;38.81
3102;BME280;1561;42.666;23.392;2024-02-23T12:21:09;94745.13;;;20.92;39.14
3102;BME280;1561;42.666;23.392;2024-02-23T12:23:41;94738.22;;;19.77;40.27
3102;BME280;1561;42.666;23.392;2024-02-23T12:26:13;94743.88;;;20.81;39.76
3102;BME280;1561;42.666;23.392;2024-02-23T12:28:45;94658.13;;;21.59;38.06
3102;BME280;1561;42.666;23.392;2024-02-23T12:31:23;94726.31;;;21.81;37.82
3102;BME280;1561;42.666;23.392;2024-02-23T12:33:53;94721.41;;;22.17;36.77
3102;BME280;1561;42.666;23.392;2024-02-23T12:36:24;94725.72;;;21.46;38.18
3102;BME280;1561;42.666;23.392;2024-02-23T12:38:54;94731.47;;;20.83;38.87
3102;BME280;1561;42.666;23.392;2024-02-23T12:41:21;94666.38;;;19.99;39.54
3102;BME280;1561;42.666;23.392;2024-02-23T12:43:53;94728.97;;;19.96;40.26
3102;BME280;1561;42.666;23.392;2024-02-23T12:46:23;94649.44;;;19.28;41.03
3102;BME280;1561;42.666;23.392;2024-02-23T12:48:51;94713.16;;;20.31;40.16
3102;BME280;1561;42.666;23.392;2024-02-23T12:51:25;94714.22;;;20.43;39.51
3102;BME280;1561;42.666;23.392;2024-02-23T12:53:54;94693.59;;;19.82;40.54
3102;BME280;1561;42.666;23.392;2024-02-23T12:56:24;94715.09;;;18.51;42.53
3102;BME280;1561;42.666;23.392;2024-02-23T12:58:55;94696.16;;;18.15;43.30
3102;BME280;1561;42.666;23.392;2024-02-23T13:01:23;94564.94;;;17.61;42.34
3102;BME280;1561;42.666;23.392;2024-02-23T13:03:53;94718.78;;;18.42;43.01
3102;BME280;1561;42.666;23.392;2024-02-23T13:06:24;94730.41;;;18.53;43.19
3102;BME280;1561;42.666;23.392;2024-02-23T13:08:51;94723.28;;;17.61;43.76
3102;BME280;1561;42.666;23.392;2024-02-23T13:11:25;94706.13;;;17.83;43.25
3102;BME280;1561;42.666;23.392;2024-02-23T13:14:03;94731.13;;;18.11;43.14
3102;BME280;1561;42.666;23.392;2024-02-23T13:16:37;94726.72;;;18.26;41.85
3102;BME280;1561;42.666;23.392;2024-02-23T13:19:10;94666.22;;;18.06;42.49
3102;BME280;1561;42.666;23.392;2024-02-23T13:21:38;94706.47;;;18.65;41.74
3102;BME280;1561;42.666;23.392;2024-02-23T13:24:05;94688.25;;;18.73;41.28
3102;BME280;1561;42.666;23.392;2024-02-23T13:26:36;94696.97;;;18.72;41.39
3102;BME280;1561;42.666;23.392;2024-02-23T13:29:26;94703.63;;;18.39;42.24
3102;BME280;1561;42.666;23.392;2024-02-23T13:31:57;94706.88;;;18.48;41.82
3102;BME280;1561;42.666;23.392;2024-02-23T13:34:29;94707.38;;;18.37;42.05
3102;BME280;1561;42.666;23.392;2024-02-23T13:36:56;94677.00;;;18.45;40.84
3102;BME280;1561;42.666;23.392;2024-02-23T13:39:31;94714.09;;;18.52;40.88
3102;BME280;1561;42.666;23.392;2024-02-23T13:42:03;94715.91;;;17.87;41.52
3102;BME280;1561;42.666;23.392;2024-02-23T13:44:36;94705.28;;;18.11;41.67
3102;BME280;1561;42.666;23.392;2024-02-23T13:47:03;94706.38;;;18.38;41.64
3102;BME280;1561;42.666;23.392;2024-02-23T13:49:33;94703.53;;;18.18;41.88
3102;BME280;1561;42.666;23.392;2024-02-23T13:52:03;94720.81;;;17.82;42.72
3102;BME280;1561;42.666;23.392;2024-02-23T13:54:30;94720.72;;;18.05;42.51
3102;BME280;1561;42.666;23.392;2024-02-23T13:57:01;94700.38;;;18.02;42.46
3102;BME280;1561;42.666;23.392;2024-02-23T13:59:29;94708.56;;;18.05;42.89